createdAt,value
2018-05-06T00:02:13.677Z,10.53
2018-05-06T00:04:40.023Z,13.37
2018-05-06T00:07:06.372Z,9.33
2018-05-06T00:09:32.690Z,13.63
2018-05-06T00:11:59.048Z,7.33
2018-05-06T00:14:26.097Z,13.80
2018-05-06T00:16:53.163Z,9.50
2018-05-06T00:19:19.510Z,8.27
2018-05-06T00:21:45.806Z,10.33
2018-05-06T00:24:12.950Z,8.80
2018-05-06T00:26:39.234Z,12.60
2018-05-06T00:29:05.556Z,7.10
2018-05-06T00:31:31.940Z,11.00
2018-05-06T00:33:58.373Z,12.00
2018-05-06T00:36:24.768Z,10.27
2018-05-06T00:38:51.109Z,10.57
2018-05-06T00:41:17.470Z,13.07
2018-05-06T00:43:43.811Z,12.00
2018-05-06T00:46:10.894Z,11.80
2018-05-06T00:48:37.253Z,11.57
2018-05-06T00:51:03.609Z,15.40
2018-05-06T00:53:29.950Z,15.10
2018-05-06T00:55:56.311Z,13.17
2018-05-06T00:58:22.688Z,14.43
2018-05-06T01:00:49.038Z,16.67
2018-05-06T01:03:15.421Z,17.43
2018-05-06T01:05:41.737Z,23.33
2018-05-06T01:08:08.014Z,14.23
2018-05-06T01:10:34.371Z,13.10
2018-05-06T01:13:00.694Z,12.10
2018-05-06T01:15:26.995Z,13.07
2018-05-06T01:17:53.298Z,16.23
2018-05-06T01:20:19.624Z,16.27
2018-05-06T01:22:45.918Z,13.63
2018-05-06T01:25:12.995Z,16.63
2018-05-06T01:27:39.344Z,14.30
2018-05-06T01:30:05.591Z,17.67
2018-05-06T01:32:31.929Z,12.70
2018-05-06T01:34:58.245Z,10.97
2018-05-06T01:37:24.571Z,13.10
2018-05-06T01:39:50.930Z,14.80
2018-05-06T01:42:17.361Z,10.30
2018-05-06T01:44:43.661Z,11.23
2018-05-06T01:47:10.019Z,10.23
2018-05-06T01:49:36.361Z,9.57
2018-05-06T01:52:03.063Z,11.43
2018-05-06T01:54:29.398Z,13.10
2018-05-06T01:56:55.710Z,13.87
2018-05-06T01:59:22.772Z,13.77
2018-05-06T02:01:49.123Z,7.60
2018-05-06T02:04:15.435Z,7.60
2018-05-06T02:06:41.847Z,12.57
2018-05-06T02:09:08.179Z,10.17
2018-05-06T02:11:34.504Z,12.63
2018-05-06T02:14:00.849Z,9.17
2018-05-06T02:16:27.214Z,12.20
2018-05-06T02:18:53.560Z,10.80
2018-05-06T02:21:19.906Z,12.23
2018-05-06T02:23:46.266Z,14.40
2018-05-06T02:26:13.366Z,10.67
2018-05-06T02:28:39.739Z,14.10
2018-05-06T02:31:06.817Z,13.17
2018-05-06T02:33:33.120Z,11.63
2018-05-06T02:35:59.424Z,10.53
2018-05-06T02:38:25.729Z,15.83
2018-05-06T02:40:52.054Z,13.70
2018-05-06T02:43:18.390Z,12.57
2018-05-06T02:45:44.716Z,10.93
2018-05-06T02:48:11.049Z,11.53
2018-05-06T02:50:37.501Z,10.00
2018-05-06T02:53:03.847Z,14.20
2018-05-06T02:55:30.993Z,10.03
2018-05-06T02:57:57.302Z,11.93
2018-05-06T03:00:23.651Z,19.23
2018-05-06T03:02:49.914Z,18.87
2018-05-06T03:05:16.971Z,13.07
2018-05-06T03:07:44.031Z,13.30
2018-05-06T03:10:10.360Z,23.23
2018-05-06T03:12:36.693Z,14.60
2018-05-06T03:15:03.118Z,15.33
2018-05-06T03:17:30.253Z,17.13
2018-05-06T03:19:56.563Z,15.17
2018-05-06T03:22:22.880Z,17.23
2018-05-06T03:24:49.211Z,16.20
2018-05-06T03:27:15.483Z,20.00
2018-05-06T03:29:42.519Z,15.17
2018-05-06T03:32:09.617Z,14.67
2018-05-06T03:34:35.952Z,11.77
2018-05-06T03:37:02.326Z,21.40
2018-05-06T03:39:28.679Z,9.27
2018-05-06T03:41:55.730Z,13.40
2018-05-06T03:44:22.078Z,16.67
2018-05-06T03:46:48.368Z,15.57
2018-05-06T03:49:14.697Z,14.83
2018-05-06T03:51:41.031Z,13.90
2018-05-06T03:54:07.360Z,8.90
2018-05-06T04:00:00.437Z,14.33
2018-05-06T04:02:41.730Z,11.00
2018-05-06T04:05:08.038Z,12.20
2018-05-06T04:07:34.473Z,10.57
2018-05-06T04:10:01.471Z,16.20
2018-05-06T04:12:27.871Z,13.60
2018-05-06T04:14:54.275Z,12.60
2018-05-06T04:17:20.631Z,10.50
2018-05-06T04:19:47.815Z,10.33
2018-05-06T04:22:14.153Z,6.07
2018-05-06T04:24:40.476Z,6.33
2018-05-06T04:27:06.789Z,11.13
2018-05-06T04:29:33.075Z,5.80
2018-05-06T04:31:59.357Z,6.30
2018-05-06T04:34:26.389Z,9.07
2018-05-06T04:36:52.712Z,10.10
2018-05-06T04:39:19.023Z,8.17
2018-05-06T04:41:46.093Z,7.63
2018-05-06T04:44:12.554Z,8.17
2018-05-06T04:46:38.759Z,11.37
2018-05-06T04:49:05.083Z,11.73
2018-05-06T04:51:31.425Z,6.13
2018-05-06T04:53:57.811Z,12.13
2018-05-06T04:56:24.433Z,11.43
2018-05-06T04:58:50.773Z,6.87
2018-05-06T05:01:17.067Z,6.47
2018-05-06T05:03:44.136Z,11.30
2018-05-06T05:06:10.554Z,10.13
2018-05-06T05:08:37.602Z,14.80
2018-05-06T05:11:04.727Z,12.57
2018-05-06T05:13:31.162Z,6.50
2018-05-06T05:15:57.497Z,8.27
2018-05-06T05:18:23.809Z,8.67
2018-05-06T05:20:50.267Z,9.97
2018-05-06T05:23:16.547Z,8.30
2018-05-06T05:25:42.822Z,9.33
2018-05-06T05:28:09.161Z,8.40
2018-05-06T05:30:35.493Z,12.93
2018-05-06T05:33:02.581Z,9.13
2018-05-06T05:35:28.929Z,8.63
2018-05-06T05:37:55.244Z,7.77
2018-05-06T05:40:21.587Z,7.63
2018-05-06T05:42:47.916Z,9.83
2018-05-06T05:45:14.244Z,9.40
2018-05-06T05:47:40.595Z,9.43
2018-05-06T05:50:06.923Z,8.53
2018-05-06T05:52:33.273Z,4.77
2018-05-06T05:55:04.405Z,14.83
2018-05-06T05:57:30.787Z,7.17
2018-05-06T05:59:57.799Z,7.33
2018-05-06T06:02:24.119Z,9.40
2018-05-06T06:04:50.414Z,12.40
2018-05-06T06:07:16.736Z,8.10
2018-05-06T06:09:43.055Z,7.03
2018-05-06T06:12:10.116Z,8.67
2018-05-06T06:14:36.532Z,5.43
2018-05-06T06:17:03.560Z,10.20
2018-05-06T06:19:29.901Z,12.43
2018-05-06T06:21:56.223Z,8.30
2018-05-06T06:24:22.625Z,9.60
2018-05-06T06:26:49.768Z,7.50
2018-05-06T06:29:16.100Z,9.50
2018-05-06T06:31:42.434Z,17.60
2018-05-06T06:34:08.801Z,10.80
2018-05-06T06:36:35.125Z,12.27
2018-05-06T06:39:02.254Z,9.70
2018-05-06T06:41:28.576Z,9.13
2018-05-06T06:43:54.975Z,11.00
2018-05-06T06:46:21.340Z,6.47
2018-05-06T06:48:47.708Z,8.33
2018-05-06T06:51:14.716Z,11.70
2018-05-06T06:53:41.064Z,12.73
2018-05-06T06:56:07.445Z,13.60
2018-05-06T06:58:33.809Z,8.73
2018-05-06T07:01:00.141Z,13.03
2018-05-06T07:03:26.400Z,8.93
2018-05-06T07:05:52.850Z,9.83
2018-05-06T07:08:19.178Z,11.63
2018-05-06T07:10:45.530Z,6.10
2018-05-06T07:13:12.603Z,11.60
2018-05-06T07:15:39.005Z,11.97
2018-05-06T07:18:06.069Z,6.17
2018-05-06T07:20:33.130Z,11.03
2018-05-06T07:22:59.476Z,8.73
2018-05-06T07:25:25.858Z,9.33
2018-05-06T07:27:52.226Z,9.80
2018-05-06T07:30:18.533Z,10.90
2018-05-06T07:32:44.845Z,11.53
2018-05-06T07:35:11.227Z,13.43
2018-05-06T07:37:37.539Z,10.30
2018-05-06T07:40:03.866Z,24.50
2018-05-06T07:42:30.194Z,10.67
2018-05-06T07:44:56.490Z,8.20
2018-05-06T07:47:22.791Z,11.40
2018-05-06T07:49:49.147Z,13.37
2018-05-06T07:52:15.499Z,7.73
2018-05-06T07:54:41.803Z,9.50
2018-05-06T07:57:08.183Z,9.57
2018-05-06T07:59:35.215Z,8.37
2018-05-06T08:02:01.551Z,10.80
2018-05-06T08:04:27.844Z,11.60
2018-05-06T08:06:54.900Z,8.93
2018-05-06T08:09:21.357Z,5.00
2018-05-06T08:11:47.773Z,6.60
2018-05-06T08:14:14.134Z,6.47
2018-05-06T08:16:40.560Z,6.23
2018-05-06T08:19:06.885Z,5.47
2018-05-06T08:21:33.206Z,4.63
2018-05-06T08:24:00.552Z,7.73
2018-05-06T08:26:26.908Z,8.00
2018-05-06T08:28:53.175Z,8.30
2018-05-06T08:31:19.537Z,7.93
2018-05-06T08:33:45.833Z,13.43
2018-05-06T08:36:12.212Z,6.10
2018-05-06T08:38:38.615Z,12.43
2018-05-06T08:41:04.898Z,4.83
2018-05-06T08:43:32.012Z,9.13
2018-05-06T08:45:58.383Z,5.97
2018-05-06T08:48:24.722Z,2.70
2018-05-06T08:50:51.013Z,6.30
2018-05-06T08:53:17.283Z,2.93
2018-05-06T08:55:43.595Z,6.17
2018-05-06T08:58:09.892Z,3.73
2018-05-06T09:00:36.273Z,13.90
2018-05-06T09:03:03.306Z,3.30
2018-05-06T09:05:29.627Z,4.00
2018-05-06T09:07:55.951Z,2.47
2018-05-06T09:10:22.377Z,4.03
2018-05-06T09:12:48.767Z,3.97
2018-05-06T09:15:15.831Z,3.30
2018-05-06T09:17:42.285Z,10.70
2018-05-06T09:20:08.578Z,2.63
2018-05-06T09:22:35.786Z,6.07
2018-05-06T09:25:02.182Z,3.00
2018-05-06T09:27:34.760Z,2.60
2018-05-06T09:30:01.136Z,3.33
2018-05-06T09:32:27.482Z,7.43
2018-05-06T09:34:53.794Z,4.60
2018-05-06T09:37:21.185Z,3.73
2018-05-06T09:39:47.524Z,3.43
2018-05-06T09:42:13.849Z,6.33
2018-05-06T09:44:44.545Z,2.83
2018-05-06T09:47:10.917Z,3.83
2018-05-06T09:49:37.551Z,2.60
2018-05-06T09:52:04.556Z,3.17
2018-05-06T09:54:30.904Z,2.57
2018-05-06T09:56:57.210Z,12.83
2018-05-06T09:59:23.553Z,3.70
2018-05-06T10:01:49.961Z,4.90
2018-05-06T10:04:16.289Z,4.73
2018-05-06T10:06:42.677Z,2.53
2018-05-06T10:09:09.890Z,6.33
2018-05-06T10:11:36.278Z,3.10
2018-05-06T10:14:02.638Z,3.60
2018-05-06T10:16:28.970Z,4.27
2018-05-06T10:18:55.391Z,9.17
2018-05-06T10:21:21.741Z,4.40
2018-05-06T10:23:48.097Z,2.97
2018-05-06T10:26:14.499Z,11.90
2018-05-06T10:28:41.567Z,2.40
2018-05-06T10:31:08.158Z,2.60
2018-05-06T10:33:34.716Z,2.33
2018-05-06T10:36:01.168Z,4.23
2018-05-06T10:38:34.535Z,3.97
2018-05-06T10:41:00.874Z,4.03
2018-05-06T10:43:27.227Z,3.03
2018-05-06T10:45:54.343Z,13.13
2018-05-06T10:48:20.720Z,6.17
2018-05-06T10:50:47.016Z,3.10
2018-05-06T10:53:13.419Z,3.50
2018-05-06T10:55:40.503Z,3.40
2018-05-06T10:58:06.906Z,4.10
2018-05-06T11:00:33.957Z,2.70
2018-05-06T11:03:00.333Z,5.83
2018-05-06T11:05:26.730Z,4.97
2018-05-06T11:07:53.101Z,7.27
2018-05-06T11:10:19.573Z,2.70
2018-05-06T11:12:45.953Z,3.00
2018-05-06T11:15:12.319Z,3.63
2018-05-06T11:17:38.666Z,2.40
2018-05-06T11:20:05.759Z,5.43
2018-05-06T11:22:32.094Z,4.20
2018-05-06T11:24:58.501Z,2.80
2018-05-06T11:27:24.890Z,5.20
2018-05-06T11:29:51.234Z,6.30
2018-05-06T11:32:17.563Z,3.23
2018-05-06T11:34:43.966Z,3.63
2018-05-06T11:37:10.328Z,1.60
2018-05-06T11:39:36.658Z,6.20
2018-05-06T11:42:03.006Z,2.87
2018-05-06T11:44:30.071Z,3.10
2018-05-06T11:46:56.387Z,1.80
2018-05-06T11:49:23.480Z,3.00
2018-05-06T11:51:49.853Z,5.60
2018-05-06T11:54:16.191Z,5.13
2018-05-06T11:56:42.720Z,2.00
2018-05-06T11:59:09.091Z,3.33
2018-05-06T12:01:35.408Z,1.97
2018-05-06T12:04:02.553Z,6.93
2018-05-06T12:06:29.629Z,3.07
2018-05-06T12:08:55.981Z,2.20
2018-05-06T12:11:22.410Z,3.33
2018-05-06T12:13:48.843Z,3.63
2018-05-06T12:16:16.276Z,2.00
2018-05-06T12:18:42.684Z,1.60
2018-05-06T12:21:09.826Z,7.47
2018-05-06T12:23:36.935Z,5.30
2018-05-06T12:26:03.311Z,4.27
2018-05-06T12:28:29.563Z,1.60
2018-05-06T12:30:56.747Z,1.77
2018-05-06T12:33:23.113Z,1.37
2018-05-06T12:35:49.455Z,3.20
2018-05-06T12:38:15.837Z,1.90
2018-05-06T12:40:42.138Z,8.93
2018-05-06T12:43:09.690Z,1.87
2018-05-06T12:45:36.116Z,4.50
2018-05-06T12:48:04.302Z,2.27
2018-05-06T12:50:31.422Z,1.63
2018-05-06T12:52:58.621Z,4.10
2018-05-06T12:55:25.651Z,1.93
2018-05-06T12:57:53.203Z,1.33
2018-05-06T13:00:20.329Z,3.17
2018-05-06T13:02:46.678Z,2.23
2018-05-06T13:05:13.751Z,3.57
2018-05-06T13:07:40.136Z,2.07
2018-05-06T13:10:06.495Z,1.50
2018-05-06T13:12:33.681Z,2.63
2018-05-06T13:15:00.057Z,1.43
2018-05-06T13:17:26.491Z,3.90
2018-05-06T13:19:52.821Z,2.23
2018-05-06T13:22:19.654Z,2.00
2018-05-06T13:24:46.152Z,2.70
2018-05-06T13:27:12.554Z,9.07
2018-05-06T13:29:39.666Z,2.60
2018-05-06T13:32:06.146Z,1.33
2018-05-06T13:34:33.273Z,4.70
2018-05-06T13:36:59.579Z,1.27
2018-05-06T13:39:26.827Z,1.10
2018-05-06T13:41:53.306Z,1.57
2018-05-06T13:44:20.381Z,1.33
2018-05-06T13:46:46.777Z,4.63
2018-05-06T13:49:13.124Z,6.00
2018-05-06T13:51:39.549Z,0.93
2018-05-06T13:54:20.150Z,2.50
2018-05-06T13:56:46.474Z,1.20
2018-05-06T13:59:12.901Z,1.17
2018-05-06T14:01:39.305Z,1.00
2018-05-06T14:04:05.712Z,2.63
2018-05-06T14:06:32.093Z,1.90
2018-05-06T14:08:58.465Z,1.97
2018-05-06T14:11:24.803Z,0.87
2018-05-06T14:13:51.257Z,2.33
2018-05-06T14:16:17.588Z,1.20
2018-05-06T14:18:43.929Z,4.43
2018-05-06T14:21:10.264Z,1.60
2018-05-06T14:23:36.689Z,1.47
2018-05-06T14:26:03.040Z,2.93
2018-05-06T14:28:29.473Z,2.47
2018-05-06T14:30:56.516Z,1.47
2018-05-06T14:33:22.902Z,1.53
2018-05-06T14:35:49.286Z,3.57
2018-05-06T14:38:16.955Z,1.67
2018-05-06T14:40:43.408Z,1.03
2018-05-06T14:43:09.906Z,1.17
2018-05-06T14:45:36.338Z,1.10
2018-05-06T14:48:12.613Z,1.17
2018-05-06T14:50:39.723Z,1.80
2018-05-06T14:53:06.131Z,2.20
2018-05-06T14:55:32.584Z,3.07
2018-05-06T14:57:58.984Z,0.70
2018-05-06T15:00:25.354Z,3.57
2018-05-06T15:02:52.707Z,2.53
2018-05-06T15:05:20.066Z,5.20
2018-05-06T15:07:46.603Z,2.80
2018-05-06T15:10:14.009Z,4.50
2018-05-06T15:12:41.145Z,1.70
2018-05-06T15:15:07.577Z,0.90
2018-05-06T15:17:33.964Z,1.00
2018-05-06T15:20:00.393Z,1.60
2018-05-06T15:22:26.861Z,1.00
2018-05-06T15:24:53.248Z,2.50
2018-05-06T15:27:19.594Z,2.83
2018-05-06T15:29:45.969Z,0.80
2018-05-06T15:32:12.295Z,1.00
2018-05-06T15:34:38.631Z,1.67
2018-05-06T15:37:04.966Z,1.33
2018-05-06T15:39:31.444Z,1.20
2018-05-06T15:41:58.874Z,3.33
2018-05-06T15:44:25.272Z,1.63
2018-05-06T15:46:51.614Z,3.87
2018-05-06T15:49:18.004Z,1.33
2018-05-06T15:51:44.364Z,1.00
2018-05-06T15:54:10.699Z,1.20
2018-05-06T15:56:37.087Z,1.97
2018-05-06T15:59:03.471Z,8.00
2018-05-06T16:01:29.820Z,2.00
2018-05-06T16:04:11.348Z,1.13
2018-05-06T16:06:37.784Z,1.00
2018-05-06T16:09:04.780Z,2.90
2018-05-06T16:11:31.875Z,4.30
2018-05-06T16:13:58.279Z,1.10
2018-05-06T16:16:25.417Z,2.03
2018-05-06T16:18:52.487Z,3.50
2018-05-06T16:21:19.590Z,2.20
2018-05-06T16:23:45.974Z,1.77
2018-05-06T16:26:12.331Z,1.57
2018-05-06T16:28:38.678Z,1.83
2018-05-06T16:31:05.020Z,0.90
2018-05-06T16:33:31.307Z,1.07
2018-05-06T16:35:57.659Z,1.13
2018-05-06T16:38:24.005Z,1.90
2018-05-06T16:40:50.373Z,1.10
2018-05-06T16:43:17.492Z,3.03
2018-05-06T16:45:43.971Z,1.87
2018-05-06T16:48:10.270Z,0.90
2018-05-06T16:50:36.697Z,2.73
2018-05-06T16:53:03.143Z,1.30
2018-05-06T16:55:29.689Z,1.73
2018-05-06T16:57:56.035Z,1.00
2018-05-06T17:00:22.363Z,2.70
2018-05-06T17:02:49.391Z,1.10
2018-05-06T17:05:15.752Z,2.07
2018-05-06T17:07:42.045Z,6.30
2018-05-06T17:10:09.158Z,3.07
2018-05-06T17:12:36.522Z,1.20
2018-05-06T17:15:02.470Z,1.87
2018-05-06T17:17:28.801Z,3.73
2018-05-06T17:19:55.230Z,1.33
2018-05-06T17:22:21.514Z,3.80
2018-05-06T17:24:47.803Z,7.73
2018-05-06T17:27:14.908Z,1.27
2018-05-06T17:29:41.959Z,3.10
2018-05-06T17:32:09.187Z,2.37
2018-05-06T17:34:36.329Z,6.73
2018-05-06T17:37:03.439Z,3.10
2018-05-06T17:39:29.895Z,2.20
2018-05-06T17:41:56.286Z,2.60
2018-05-06T17:44:22.780Z,4.00
2018-05-06T17:46:49.253Z,2.80
2018-05-06T17:49:17.666Z,9.83
2018-05-06T17:51:44.115Z,2.90
2018-05-06T17:54:10.581Z,1.63
2018-05-06T17:56:37.029Z,9.17
2018-05-06T17:59:03.499Z,2.37
2018-05-06T18:01:29.963Z,1.63
2018-05-06T18:03:57.115Z,4.10
2018-05-06T18:06:24.325Z,4.70
2018-05-06T18:08:50.670Z,7.00
2018-05-06T18:11:17.134Z,6.13
2018-05-06T18:13:44.517Z,5.87
2018-05-06T18:16:10.977Z,4.07
2018-05-06T18:18:37.385Z,3.77
2018-05-06T18:21:03.783Z,11.10
2018-05-06T18:26:28.171Z,7.80
2018-05-06T18:28:54.662Z,4.30
2018-05-06T18:31:21.385Z,1.90
2018-05-06T18:33:48.117Z,3.97
2018-05-06T18:36:17.891Z,2.50
2018-05-06T18:38:45.369Z,2.23
2018-05-06T18:41:12.588Z,6.70
2018-05-06T18:43:40.229Z,3.80
2018-05-06T18:46:13.153Z,9.70
2018-05-06T18:48:42.429Z,4.10
2018-05-06T18:51:08.883Z,3.87
2018-05-06T18:53:35.477Z,4.90
2018-05-06T18:56:12.368Z,3.60
2018-05-06T18:58:38.924Z,3.57
2018-05-06T19:01:05.330Z,6.70
2018-05-06T19:03:35.152Z,14.60
2018-05-06T19:06:01.888Z,10.97
2018-05-06T19:08:28.492Z,8.20
2018-05-06T19:10:54.937Z,4.33
2018-05-06T19:13:22.246Z,3.87
2018-05-06T19:15:48.980Z,4.03
2018-05-06T19:18:15.491Z,5.83
2018-05-06T19:20:41.972Z,4.20
2018-05-06T19:23:09.326Z,2.77
2018-05-06T19:25:36.810Z,4.40
2018-05-06T19:28:03.412Z,2.73
2018-05-06T19:30:30.114Z,2.20
2018-05-06T19:32:57.723Z,4.47
2018-05-06T19:35:24.210Z,10.30
2018-05-06T19:37:50.663Z,10.33
2018-05-06T19:40:17.148Z,4.17
2018-05-06T19:42:44.430Z,2.13
2018-05-06T19:45:10.901Z,4.43
2018-05-06T19:47:37.454Z,5.33
2018-05-06T19:50:04.026Z,2.23
2018-05-06T19:52:31.704Z,3.33
2018-05-06T19:54:58.213Z,4.27
2018-05-06T19:57:25.466Z,4.73
2018-05-06T19:59:52.645Z,4.77
2018-05-06T20:02:20.114Z,4.30
2018-05-06T20:04:46.517Z,4.33
2018-05-06T20:07:12.968Z,3.00
2018-05-06T20:09:39.393Z,4.83
2018-05-06T20:12:05.856Z,3.30
2018-05-06T20:14:32.415Z,2.90
2018-05-06T20:16:58.845Z,6.53
2018-05-06T20:19:25.320Z,4.00
2018-05-06T20:21:52.551Z,4.70
2018-05-06T20:24:18.833Z,4.33
2018-05-06T20:26:45.269Z,5.17
2018-05-06T20:29:11.586Z,6.33
2018-05-06T20:31:38.890Z,4.07
2018-05-06T20:34:06.732Z,3.97
2018-05-06T20:36:33.101Z,4.87
2018-05-06T20:38:59.477Z,3.73
2018-05-06T20:41:26.675Z,4.77
2018-05-06T20:43:53.171Z,3.70
2018-05-06T20:46:19.477Z,2.20
2018-05-06T20:48:45.880Z,7.17
2018-05-06T20:51:12.464Z,6.80
2018-05-06T20:53:38.886Z,3.37
2018-05-06T20:56:05.413Z,6.93
2018-05-06T20:58:31.940Z,2.90
2018-05-06T21:00:58.598Z,5.50
2018-05-06T21:03:25.003Z,6.10
2018-05-06T21:05:52.797Z,3.67
2018-05-06T21:08:19.224Z,2.57
2018-05-06T21:10:45.657Z,6.10
2018-05-06T21:13:12.006Z,10.70
2018-05-06T21:15:39.014Z,4.50
2018-05-06T21:18:06.191Z,5.13
2018-05-06T21:20:32.541Z,3.73
2018-05-06T21:22:58.933Z,3.23
2018-05-06T21:25:26.082Z,5.30
2018-05-06T21:27:53.154Z,3.43
2018-05-06T21:30:19.565Z,4.97
2018-05-06T21:32:45.880Z,13.40
2018-05-06T21:35:12.222Z,8.57
2018-05-06T21:37:38.613Z,14.33
2018-05-06T21:40:05.129Z,6.00
2018-05-06T21:42:31.704Z,4.83
2018-05-06T21:44:58.148Z,4.20
2018-05-06T21:47:24.531Z,3.60
2018-05-06T21:49:51.005Z,5.90
2018-05-06T21:52:17.319Z,14.73
2018-05-06T21:54:43.722Z,3.50
2018-05-06T21:57:10.058Z,2.23
2018-05-06T21:59:36.481Z,2.60
2018-05-06T22:02:02.832Z,5.73
2018-05-06T22:04:29.141Z,4.17
2018-05-06T22:06:55.542Z,3.97
2018-05-06T22:09:21.919Z,6.70
2018-05-06T22:11:48.454Z,6.03
2018-05-06T22:14:14.816Z,6.63
2018-05-06T22:16:41.177Z,3.53
2018-05-06T22:19:08.269Z,2.17
2018-05-06T22:21:34.591Z,4.80
2018-05-06T22:24:00.916Z,6.00
2018-05-06T22:26:27.280Z,4.43
2018-05-06T22:28:53.588Z,7.77
2018-05-06T22:31:19.932Z,6.07
2018-05-06T22:33:46.263Z,7.27
2018-05-06T22:36:12.531Z,5.80
2018-05-06T22:38:38.798Z,9.13
2018-05-06T22:41:05.071Z,6.17
2018-05-06T22:43:31.417Z,6.10
2018-05-06T22:45:57.712Z,3.50
2018-05-06T22:48:24.080Z,3.70
2018-05-06T22:50:50.375Z,3.90
2018-05-06T22:53:16.735Z,3.93
2018-05-06T22:55:43.069Z,7.33
2018-05-06T22:58:09.390Z,9.60
2018-05-06T23:00:35.832Z,8.37
2018-05-06T23:03:02.904Z,8.93
2018-05-06T23:05:30.000Z,6.40
2018-05-06T23:07:56.352Z,4.93
2018-05-06T23:10:22.677Z,5.63
2018-05-06T23:12:48.995Z,3.10
2018-05-06T23:15:15.359Z,7.20
2018-05-06T23:17:41.657Z,10.53
2018-05-06T23:20:08.034Z,11.50
2018-05-06T23:22:34.353Z,7.53
2018-05-06T23:25:00.715Z,3.53
2018-05-06T23:27:27.793Z,3.57
2018-05-06T23:29:54.207Z,6.57
2018-05-06T23:32:20.476Z,8.07
2018-05-06T23:34:46.865Z,4.87
2018-05-06T23:37:13.935Z,6.57
2018-05-06T23:39:40.243Z,9.87
2018-05-06T23:42:07.362Z,4.37
2018-05-06T23:44:33.692Z,12.30
2018-05-06T23:46:59.986Z,3.33
2018-05-06T23:49:26.281Z,4.50
2018-05-06T23:51:53.383Z,4.50
2018-05-06T23:54:19.685Z,6.57
2018-05-06T23:56:45.972Z,2.80
2018-05-06T23:59:12.312Z,2.80
